createdAt,value
2023-11-12T00:00:57.212Z,84.45
2023-11-12T00:03:24.218Z,84.41
2023-11-12T00:05:52.628Z,84.28
2023-11-12T00:08:19.725Z,84.14
2023-11-12T00:10:48.394Z,83.85
2023-11-12T00:13:15.416Z,83.70
2023-11-12T00:15:42.462Z,83.34
2023-11-12T00:18:09.642Z,83.30
2023-11-12T00:20:36.652Z,83.14
2023-11-12T00:23:03.537Z,82.91
2023-11-12T00:25:30.485Z,82.78
2023-11-12T00:27:58.567Z,82.82
2023-11-12T00:30:25.324Z,82.86
2023-11-12T00:32:53.560Z,82.92
2023-11-12T00:35:20.794Z,83.00
2023-11-12T00:37:48.464Z,83.12
2023-11-12T00:40:17.126Z,83.25
2023-11-12T00:42:44.580Z,83.24
2023-11-12T00:45:13.287Z,83.42
2023-11-12T00:47:40.351Z,83.61
2023-11-12T00:50:09.336Z,83.59
2023-11-12T00:52:36.595Z,83.48
2023-11-12T00:55:04.122Z,83.33
2023-11-12T00:57:31.471Z,83.29
2023-11-12T00:59:58.885Z,83.28
2023-11-12T01:02:28.325Z,83.19
2023-11-12T01:04:55.417Z,83.08
2023-11-12T01:07:22.331Z,83.15
2023-11-12T01:09:50.329Z,83.15
2023-11-12T01:12:20.092Z,83.28
2023-11-12T01:14:48.508Z,83.40
2023-11-12T01:17:15.741Z,83.52
2023-11-12T01:19:42.802Z,83.67
2023-11-12T01:22:09.839Z,83.72
2023-11-12T01:24:38.256Z,83.83
2023-11-12T01:27:05.276Z,83.76
2023-11-12T01:29:32.735Z,83.68
2023-11-12T01:31:59.987Z,83.69
2023-11-12T01:34:26.812Z,83.86
2023-11-12T01:36:53.759Z,83.83
2023-11-12T01:39:20.618Z,83.89
2023-11-12T01:41:47.617Z,84.06
2023-11-12T01:44:14.637Z,84.23
2023-11-12T01:46:41.440Z,84.23
2023-11-12T01:49:08.336Z,84.38
2023-11-12T01:51:36.200Z,84.41
2023-11-12T01:54:03.748Z,84.44
2023-11-12T01:56:31.071Z,84.52
2023-11-12T01:58:58.249Z,84.64
2023-11-12T02:01:25.429Z,84.65
2023-11-12T02:03:52.994Z,84.58
2023-11-12T02:06:20.730Z,84.53
2023-11-12T02:08:47.775Z,84.49
2023-11-12T02:11:14.667Z,84.59
2023-11-12T02:13:42.671Z,84.70
2023-11-12T02:16:10.528Z,84.83
2023-11-12T02:18:37.710Z,84.86
2023-11-12T02:21:04.950Z,84.90
2023-11-12T02:23:37.211Z,84.94
2023-11-12T02:26:04.452Z,84.99
2023-11-12T02:28:31.291Z,85.01
2023-11-12T02:30:58.520Z,84.92
2023-11-12T02:33:27.957Z,84.86
2023-11-12T02:35:56.133Z,85.10
2023-11-12T02:38:23.963Z,85.19
2023-11-12T02:40:51.827Z,85.23
2023-11-12T02:43:19.315Z,85.36
2023-11-12T02:45:47.189Z,85.27
2023-11-12T02:48:14.385Z,85.47
2023-11-12T02:50:42.217Z,85.48
2023-11-12T02:53:10.885Z,85.48
2023-11-12T02:55:38.119Z,85.38
2023-11-12T02:58:05.652Z,85.64
2023-11-12T03:00:34.075Z,85.78
2023-11-12T03:03:02.391Z,85.99
2023-11-12T03:05:29.888Z,85.96
2023-11-12T03:07:59.827Z,85.90
2023-11-12T03:10:26.985Z,85.85
2023-11-12T03:12:54.461Z,85.95
2023-11-12T03:15:21.508Z,85.86
2023-11-12T03:17:49.100Z,85.83
2023-11-12T03:20:16.579Z,85.85
2023-11-12T03:22:43.769Z,85.82
2023-11-12T03:25:10.643Z,85.81
2023-11-12T03:27:37.836Z,85.58
2023-11-12T03:30:06.378Z,85.58
2023-11-12T03:32:33.597Z,85.43
2023-11-12T03:35:01.634Z,85.45
2023-11-12T03:37:29.019Z,85.31
2023-11-12T03:39:57.364Z,85.18
2023-11-12T03:42:24.786Z,85.25
2023-11-12T03:44:51.731Z,85.10
2023-11-12T03:47:18.551Z,85.29
2023-11-12T03:49:45.854Z,85.23
2023-11-12T03:52:13.555Z,85.26
2023-11-12T03:54:40.534Z,85.30
2023-11-12T03:57:07.515Z,85.29
2023-11-12T03:59:36.641Z,85.29
2023-11-12T04:02:04.912Z,85.20
2023-11-12T04:04:32.126Z,85.23
2023-11-12T04:06:59.288Z,84.99
2023-11-12T04:09:26.450Z,84.89
2023-11-12T04:11:54.006Z,84.85
2023-11-12T04:14:21.351Z,84.98
2023-11-12T04:16:48.403Z,85.11
2023-11-12T04:19:15.329Z,85.09
2023-11-12T04:21:46.710Z,85.01
2023-11-12T04:24:13.834Z,85.05
2023-11-12T04:26:41.094Z,84.84
2023-11-12T04:29:08.929Z,84.75
2023-11-12T04:31:36.846Z,84.66
2023-11-12T04:34:04.627Z,84.68
2023-11-12T04:36:36.051Z,84.71
2023-11-12T04:39:03.982Z,84.71
2023-11-12T04:41:31.022Z,84.73
2023-11-12T04:43:58.259Z,84.73
2023-11-12T04:46:25.976Z,84.51
2023-11-12T04:48:52.857Z,84.56
2023-11-12T04:51:20.439Z,84.45
2023-11-12T04:53:48.751Z,84.40
2023-11-12T04:56:16.018Z,84.34
2023-11-12T04:58:43.128Z,84.26
2023-11-12T05:01:10.100Z,84.11
2023-11-12T05:03:37.278Z,83.99
2023-11-12T05:06:05.595Z,83.84
2023-11-12T05:08:32.620Z,83.84
2023-11-12T05:10:59.660Z,83.77
2023-11-12T05:13:26.855Z,83.68
2023-11-12T05:15:54.535Z,83.70
2023-11-12T05:18:21.914Z,83.64
2023-11-12T05:20:49.006Z,83.62
2023-11-12T05:23:16.065Z,83.67
2023-11-12T05:25:43.543Z,83.60
2023-11-12T05:28:10.615Z,83.46
2023-11-12T05:30:39.470Z,83.27
2023-11-12T05:33:06.366Z,83.18
2023-11-12T05:35:33.480Z,83.08
2023-11-12T05:38:00.624Z,83.02
2023-11-12T05:40:29.766Z,82.96
2023-11-12T05:42:56.711Z,82.91
2023-11-12T05:45:23.552Z,82.69
2023-11-12T05:47:50.600Z,82.63
2023-11-12T05:50:17.919Z,82.62
2023-11-12T05:52:44.857Z,82.64
2023-11-12T05:55:12.163Z,82.84
2023-11-12T05:57:39.337Z,82.86
2023-11-12T06:00:13.496Z,82.83
2023-11-12T06:02:40.596Z,82.89
2023-11-12T06:05:08.596Z,83.07
2023-11-12T06:07:35.700Z,83.23
2023-11-12T06:10:03.838Z,83.08
2023-11-12T06:12:31.741Z,82.98
2023-11-12T06:14:58.945Z,82.95
2023-11-12T06:17:25.984Z,82.68
2023-11-12T06:19:53.506Z,82.68
2023-11-12T06:22:20.898Z,82.54
2023-11-12T06:24:47.921Z,82.19
2023-11-12T06:27:15.001Z,82.06
2023-11-12T06:29:42.792Z,82.03
2023-11-12T06:32:09.901Z,82.03
2023-11-12T06:34:36.812Z,81.99
2023-11-12T06:37:04.450Z,81.93
2023-11-12T06:39:31.658Z,81.80
2023-11-12T06:41:58.802Z,81.77
2023-11-12T06:44:26.070Z,81.81
2023-11-12T06:46:52.940Z,81.58
2023-11-12T06:49:19.947Z,81.28
2023-11-12T06:51:47.095Z,81.18
2023-11-12T06:54:14.321Z,81.09
2023-11-12T06:56:41.269Z,81.04
2023-11-12T06:59:08.447Z,80.85
2023-11-12T07:01:36.504Z,80.85
2023-11-12T07:04:05.018Z,80.75
2023-11-12T07:06:32.258Z,80.67
2023-11-12T07:08:59.818Z,80.66
2023-11-12T07:11:26.685Z,80.71
2023-11-12T07:13:53.706Z,80.68
2023-11-12T07:16:21.207Z,80.52
2023-11-12T07:21:31.504Z,80.62
2023-11-12T07:23:58.804Z,80.60
2023-11-12T07:26:27.878Z,80.46
2023-11-12T07:28:55.120Z,80.48
2023-11-12T07:31:23.858Z,80.36
2023-11-12T07:33:51.384Z,80.33
2023-11-12T07:36:19.282Z,80.38
2023-11-12T07:38:46.395Z,80.30
2023-11-12T07:41:13.341Z,80.18
2023-11-12T07:43:41.445Z,80.06
2023-11-12T07:46:08.834Z,79.89
2023-11-12T07:48:36.644Z,79.68
2023-11-12T07:51:03.765Z,79.58
2023-11-12T07:53:30.729Z,79.67
2023-11-12T07:55:57.902Z,79.67
2023-11-12T07:58:25.299Z,79.76
2023-11-12T08:00:52.513Z,79.64
2023-11-12T08:03:21.232Z,79.56
2023-11-12T08:05:49.932Z,79.48
2023-11-12T08:08:17.033Z,79.38
2023-11-12T08:10:43.955Z,79.46
2023-11-12T08:13:10.905Z,79.42
2023-11-12T08:15:38.475Z,79.25
2023-11-12T08:18:08.732Z,79.26
2023-11-12T08:20:36.513Z,79.42
2023-11-12T08:23:04.258Z,79.48
2023-11-12T08:25:31.197Z,79.44
2023-11-12T08:27:58.374Z,79.37
2023-11-12T08:30:25.756Z,79.58
2023-11-12T08:32:52.819Z,79.88
2023-11-12T08:35:19.850Z,80.15
2023-11-12T08:37:47.146Z,80.18
2023-11-12T08:40:16.499Z,80.14
2023-11-12T08:42:44.137Z,80.10
2023-11-12T08:45:11.124Z,79.82
2023-11-12T08:47:37.971Z,79.91
2023-11-12T08:50:05.599Z,79.71
2023-11-12T08:52:32.856Z,79.73
2023-11-12T08:55:00.439Z,79.56
2023-11-12T08:57:27.804Z,79.57
2023-11-12T08:59:55.249Z,79.48
2023-11-12T09:02:23.122Z,79.19
2023-11-12T09:04:49.898Z,78.61
2023-11-12T09:07:16.997Z,77.94
2023-11-12T09:09:45.007Z,77.71
2023-11-12T09:12:12.394Z,77.98
2023-11-12T09:14:39.370Z,78.43
2023-11-12T09:17:07.473Z,78.66
2023-11-12T09:19:34.388Z,78.48
2023-11-12T09:22:01.535Z,78.38
2023-11-12T09:24:28.652Z,78.57
2023-11-12T09:26:55.527Z,78.69
2023-11-12T09:29:22.319Z,78.99
2023-11-12T09:31:49.434Z,79.38
2023-11-12T09:34:16.839Z,79.49
2023-11-12T09:36:43.864Z,79.16
2023-11-12T09:39:14.410Z,79.21
2023-11-12T09:41:46.059Z,79.39
2023-11-12T09:44:14.871Z,79.42
2023-11-12T09:46:41.834Z,79.66
2023-11-12T09:49:09.433Z,79.54
2023-11-12T09:51:36.722Z,79.35
2023-11-12T09:54:04.210Z,79.95
2023-11-12T09:56:31.275Z,80.16
2023-11-12T09:58:58.080Z,80.10
2023-11-12T10:01:25.183Z,80.22
2023-11-12T10:03:53.115Z,80.14
2023-11-12T10:06:23.682Z,80.15
2023-11-12T10:08:51.062Z,80.18
2023-11-12T10:11:22.360Z,80.58
2023-11-12T10:13:51.759Z,80.58
2023-11-12T10:16:32.289Z,80.01
2023-11-12T10:19:16.063Z,79.93
2023-11-12T10:21:57.647Z,79.79
2023-11-12T10:24:28.650Z,79.73
2023-11-12T10:27:02.503Z,79.47
2023-11-12T10:29:29.747Z,79.32
2023-11-12T10:31:57.844Z,79.02
2023-11-12T10:34:27.931Z,79.13
2023-11-12T10:37:16.624Z,79.62
2023-11-12T10:39:47.297Z,79.57
2023-11-12T10:42:14.942Z,79.63
2023-11-12T10:44:42.478Z,80.17
2023-11-12T10:47:09.940Z,80.44
2023-11-12T10:49:40.427Z,80.57
2023-11-12T10:52:08.993Z,80.40
2023-11-12T10:54:37.104Z,80.08
2023-11-12T10:57:04.639Z,79.54
2023-11-12T10:59:32.226Z,79.36
2023-11-12T11:02:02.451Z,79.52
2023-11-12T11:04:31.631Z,79.08
2023-11-12T11:06:59.665Z,78.85
2023-11-12T11:09:28.285Z,78.96
2023-11-12T11:11:55.198Z,78.93
2023-11-12T11:14:28.298Z,79.01
2023-11-12T11:16:55.703Z,78.83
2023-11-12T11:19:46.200Z,78.80
2023-11-12T11:22:25.882Z,78.66
2023-11-12T11:24:54.180Z,78.38
2023-11-12T11:27:25.128Z,77.93
2023-11-12T11:30:16.874Z,77.91
2023-11-12T11:33:04.309Z,77.79
2023-11-12T11:35:31.609Z,77.42
2023-11-12T11:38:12.313Z,76.93
2023-11-12T11:40:40.645Z,76.83
2023-11-12T11:43:23.386Z,76.74
2023-11-12T11:46:07.567Z,76.61
2023-11-12T11:48:35.205Z,75.55
2023-11-12T11:51:03.985Z,75.93
2023-11-12T11:53:32.690Z,76.30
2023-11-12T11:56:07.301Z,76.82
2023-11-12T11:58:41.719Z,77.00
2023-11-12T12:01:09.277Z,76.97
2023-11-12T12:03:37.049Z,76.77
2023-11-12T12:06:21.927Z,77.10
2023-11-12T12:08:52.806Z,77.24
2023-11-12T12:11:25.223Z,77.62
2023-11-12T12:13:57.113Z,77.75
2023-11-12T12:16:31.258Z,77.66
2023-11-12T12:18:58.638Z,77.44
2023-11-12T12:21:25.897Z,77.64
2023-11-12T12:23:52.982Z,77.60
2023-11-12T12:26:25.081Z,77.69
2023-11-12T12:28:53.286Z,77.80
2023-11-12T12:31:20.590Z,77.83
2023-11-12T12:34:10.307Z,77.06
2023-11-12T12:36:38.274Z,76.45
2023-11-12T12:39:09.454Z,76.46
2023-11-12T12:41:37.262Z,76.32
2023-11-12T12:44:05.320Z,76.13
2023-11-12T12:46:46.541Z,76.25
2023-11-12T12:49:29.197Z,76.44
2023-11-12T12:51:56.546Z,76.58
2023-11-12T12:54:24.417Z,76.24
2023-11-12T12:56:51.389Z,76.32
2023-11-12T12:59:18.399Z,76.04
2023-11-12T13:01:45.368Z,75.79
2023-11-12T13:04:12.596Z,75.87
2023-11-12T13:06:40.537Z,76.08
2023-11-12T13:09:17.664Z,75.96
2023-11-12T13:11:44.752Z,75.86
2023-11-12T13:14:11.963Z,75.94
2023-11-12T13:16:40.188Z,75.58
2023-11-12T13:19:14.751Z,75.72
2023-11-12T13:21:54.282Z,75.75
2023-11-12T13:24:27.225Z,75.86
2023-11-12T13:26:54.606Z,75.69
2023-11-12T13:29:23.135Z,75.80
2023-11-12T13:31:51.618Z,75.74
2023-11-12T13:34:19.098Z,76.03
2023-11-12T13:36:46.543Z,76.12
2023-11-12T13:39:15.264Z,75.92
2023-11-12T13:41:42.220Z,75.99
2023-11-12T13:44:10.121Z,75.76
2023-11-12T13:46:37.766Z,75.46
2023-11-12T13:49:06.771Z,75.01
2023-11-12T13:51:36.666Z,75.04
2023-11-12T13:54:11.170Z,75.11
2023-11-12T13:56:39.757Z,75.23
2023-11-12T13:59:06.683Z,75.60
2023-11-12T14:01:33.918Z,75.70
2023-11-12T14:04:01.449Z,75.85
2023-11-12T14:06:28.772Z,76.17
2023-11-12T14:08:56.836Z,75.90
2023-11-12T14:11:23.870Z,75.77
2023-11-12T14:13:51.466Z,75.44
2023-11-12T14:16:23.732Z,75.50
2023-11-12T14:18:51.412Z,75.65
2023-11-12T14:21:18.615Z,75.82
2023-11-12T14:23:45.817Z,75.72
2023-11-12T14:26:13.996Z,75.95
2023-11-12T14:28:42.167Z,75.81
2023-11-12T14:31:11.517Z,75.67
2023-11-12T14:33:40.213Z,75.81
2023-11-12T14:36:11.456Z,75.46
2023-11-12T14:38:38.612Z,75.35
2023-11-12T14:41:07.957Z,75.25
2023-11-12T14:43:38.613Z,75.48
2023-11-12T14:46:06.251Z,75.63
2023-11-12T14:48:36.152Z,75.76
2023-11-12T14:51:06.009Z,75.83
2023-11-12T14:53:33.182Z,75.97
2023-11-12T14:56:01.008Z,75.94
2023-11-12T14:58:28.023Z,75.64
2023-11-12T15:00:55.370Z,75.21
2023-11-12T15:03:25.493Z,75.00
2023-11-12T15:05:52.839Z,74.97
2023-11-12T15:08:20.686Z,75.07
2023-11-12T15:10:48.158Z,75.03
2023-11-12T15:13:15.196Z,75.13
2023-11-12T15:15:42.668Z,75.35
2023-11-12T15:18:10.631Z,75.47
2023-11-12T15:20:37.748Z,75.48
2023-11-12T15:23:04.609Z,75.81
2023-11-12T15:25:32.167Z,76.04
2023-11-12T15:27:59.437Z,76.12
2023-11-12T15:30:27.003Z,76.18
2023-11-12T15:32:54.279Z,76.24
2023-11-12T15:35:21.277Z,76.28
2023-11-12T15:37:48.258Z,76.62
2023-11-12T15:40:20.721Z,76.84
2023-11-12T15:42:54.339Z,77.14
2023-11-12T15:45:24.748Z,77.37
2023-11-12T15:47:52.453Z,77.56
2023-11-12T15:50:20.344Z,77.67
2023-11-12T15:52:48.021Z,77.62
2023-11-12T15:55:18.141Z,77.85
2023-11-12T15:57:45.747Z,78.10
2023-11-12T16:00:13.465Z,78.08
2023-11-12T16:02:41.298Z,78.04
2023-11-12T16:05:08.794Z,77.83
2023-11-12T16:07:35.845Z,78.03
2023-11-12T16:10:05.398Z,78.21
2023-11-12T16:12:36.395Z,78.37
2023-11-12T16:15:06.116Z,78.10
2023-11-12T16:17:33.446Z,78.08
2023-11-12T16:20:01.240Z,77.78
2023-11-12T16:22:28.606Z,77.74
2023-11-12T16:24:55.681Z,77.63
2023-11-12T16:27:22.848Z,77.53
2023-11-12T16:29:49.978Z,77.60
2023-11-12T16:32:20.773Z,77.20
2023-11-12T16:34:49.157Z,76.89
2023-11-12T16:37:16.085Z,76.60
2023-11-12T16:39:48.261Z,76.40
2023-11-12T16:42:16.227Z,76.40
2023-11-12T16:44:44.084Z,76.38
2023-11-12T16:47:11.873Z,76.26
2023-11-12T16:49:39.498Z,75.74
2023-11-12T16:52:09.220Z,75.39
2023-11-12T16:54:36.791Z,74.77
2023-11-12T16:57:12.833Z,74.72
2023-11-12T16:59:40.464Z,74.62
2023-11-12T17:02:08.872Z,74.44
2023-11-12T17:04:37.084Z,74.46
2023-11-12T17:07:04.805Z,74.54
2023-11-12T17:09:32.196Z,74.29
2023-11-12T17:11:59.290Z,74.25
2023-11-12T17:14:26.456Z,74.01
2023-11-12T17:16:55.136Z,74.03
2023-11-12T17:19:22.088Z,73.94
2023-11-12T17:21:51.074Z,73.76
2023-11-12T17:24:18.492Z,73.85
2023-11-12T17:26:46.227Z,73.84
2023-11-12T17:29:13.292Z,73.76
2023-11-12T17:31:40.312Z,73.92
2023-11-12T17:34:07.423Z,73.88
2023-11-12T17:36:35.066Z,73.87
2023-11-12T17:39:01.996Z,74.09
2023-11-12T17:41:29.096Z,74.07
2023-11-12T17:43:59.149Z,74.06
2023-11-12T17:46:26.558Z,74.19
2023-11-12T17:48:55.416Z,74.23
2023-11-12T17:51:23.784Z,74.11
2023-11-12T17:53:50.901Z,74.23
2023-11-12T17:56:18.057Z,74.39
2023-11-12T17:58:45.782Z,74.56
2023-11-12T18:01:12.960Z,74.57
2023-11-12T18:03:41.327Z,74.41
2023-11-12T18:06:08.903Z,74.39
2023-11-12T18:08:36.812Z,74.26
2023-11-12T18:11:04.808Z,74.31
2023-11-12T18:13:34.268Z,74.22
2023-11-12T18:16:02.721Z,74.29
2023-11-12T18:18:30.212Z,74.45
2023-11-12T18:20:58.477Z,74.49
2023-11-12T18:23:25.709Z,74.39
2023-11-12T18:25:53.010Z,74.25
2023-11-12T18:28:20.512Z,74.13
2023-11-12T18:30:49.273Z,73.89
2023-11-12T18:33:17.384Z,74.05
2023-11-12T18:35:45.453Z,74.27
2023-11-12T18:38:12.710Z,74.31
2023-11-12T18:40:42.745Z,74.42
2023-11-12T18:43:12.564Z,74.56
2023-11-12T18:45:39.946Z,74.60
2023-11-12T18:48:08.785Z,74.72
2023-11-12T18:50:39.863Z,74.49
2023-11-12T18:53:08.011Z,74.52
2023-11-12T18:55:35.159Z,74.41
2023-11-12T18:58:02.705Z,74.43
2023-11-12T19:00:30.261Z,74.21
2023-11-12T19:02:57.885Z,73.90
2023-11-12T19:05:25.152Z,73.69
2023-11-12T19:07:52.326Z,73.63
2023-11-12T19:10:22.954Z,73.53
2023-11-12T19:12:50.835Z,73.35
2023-11-12T19:15:18.281Z,73.11
2023-11-12T19:17:45.965Z,73.14
2023-11-12T19:20:14.754Z,72.95
2023-11-12T19:22:42.527Z,73.03
2023-11-12T19:25:10.918Z,73.36
2023-11-12T19:27:39.469Z,73.15
2023-11-12T19:30:13.715Z,73.23
2023-11-12T19:32:43.272Z,73.34
2023-11-12T19:35:10.242Z,73.16
2023-11-12T19:37:38.213Z,73.05
2023-11-12T19:40:06.882Z,73.20
2023-11-12T19:42:34.305Z,72.97
2023-11-12T19:45:01.383Z,73.11
2023-11-12T19:47:32.257Z,72.63
2023-11-12T19:49:59.630Z,72.72
2023-11-12T19:52:26.730Z,72.62
2023-11-12T19:54:54.030Z,72.59
2023-11-12T19:57:21.225Z,72.65
2023-11-12T19:59:48.497Z,72.71
2023-11-12T20:02:15.950Z,72.60
2023-11-12T20:04:43.614Z,72.55
2023-11-12T20:07:10.802Z,72.43
2023-11-12T20:09:39.040Z,72.07
2023-11-12T20:12:06.989Z,71.92
2023-11-12T20:14:34.168Z,71.87
2023-11-12T20:17:01.434Z,72.18
2023-11-12T20:19:28.934Z,71.92
2023-11-12T20:21:56.482Z,71.61
2023-11-12T20:24:23.864Z,71.38
2023-11-12T20:26:54.570Z,71.45
2023-11-12T20:29:21.749Z,71.65
2023-11-12T20:31:54.071Z,71.62
2023-11-12T20:34:22.087Z,71.57
2023-11-12T20:36:51.004Z,71.48
2023-11-12T20:39:18.436Z,71.60
2023-11-12T20:41:46.788Z,71.62
2023-11-12T20:44:14.679Z,71.77
2023-11-12T20:46:45.892Z,71.64
2023-11-12T20:49:16.152Z,71.61
2023-11-12T20:51:47.387Z,71.63
2023-11-12T20:54:18.611Z,71.80
2023-11-12T20:56:46.400Z,71.58
2023-11-12T20:59:13.815Z,71.51
2023-11-12T21:01:41.208Z,71.53
2023-11-12T21:04:12.361Z,71.42
2023-11-12T21:06:43.357Z,71.37
2023-11-12T21:09:11.780Z,71.55
2023-11-12T21:11:46.993Z,71.77
2023-11-12T21:14:16.117Z,71.82
2023-11-12T21:16:43.815Z,71.87
2023-11-12T21:19:11.424Z,72.16
2023-11-12T21:21:38.627Z,72.19
2023-11-12T21:24:06.508Z,72.19
2023-11-12T21:26:34.253Z,72.32
2023-11-12T21:29:02.198Z,72.15
2023-11-12T21:31:29.978Z,72.32
2023-11-12T21:33:56.960Z,72.31
2023-11-12T21:36:23.791Z,72.60
2023-11-12T21:38:51.605Z,72.65
2023-11-12T21:41:18.553Z,72.48
2023-11-12T21:43:45.748Z,72.25
2023-11-12T21:46:15.873Z,72.40
2023-11-12T21:48:43.157Z,72.24
2023-11-12T21:51:10.219Z,72.25
2023-11-12T21:53:37.814Z,72.18
2023-11-12T21:56:08.133Z,72.23
2023-11-12T21:58:36.074Z,72.28
2023-11-12T22:01:03.105Z,72.24
2023-11-12T22:03:30.271Z,72.41
2023-11-12T22:05:57.133Z,72.41
2023-11-12T22:08:24.253Z,72.21
2023-11-12T22:10:51.279Z,72.04
2023-11-12T22:13:20.999Z,71.95
2023-11-12T22:15:48.810Z,71.48
2023-11-12T22:18:17.573Z,71.45
2023-11-12T22:20:44.719Z,71.57
2023-11-12T22:23:12.388Z,71.40
2023-11-12T22:25:39.418Z,71.51
2023-11-12T22:28:06.690Z,71.33
2023-11-12T22:30:33.771Z,71.22
2023-11-12T22:33:00.987Z,71.28
2023-11-12T22:35:28.253Z,71.17
2023-11-12T22:37:55.472Z,71.40
2023-11-12T22:40:26.158Z,71.43
2023-11-12T22:42:53.600Z,71.15
2023-11-12T22:45:20.866Z,71.05
2023-11-12T22:47:47.617Z,70.75
2023-11-12T22:50:17.739Z,70.76
2023-11-12T22:52:44.996Z,70.85
2023-11-12T22:55:12.075Z,71.13
2023-11-12T22:57:40.509Z,71.06
2023-11-12T23:00:40.998Z,70.84
2023-11-12T23:03:14.109Z,70.96
2023-11-12T23:05:45.063Z,71.07
2023-11-12T23:08:12.360Z,71.03
2023-11-12T23:10:40.549Z,71.21
2023-11-12T23:13:07.773Z,71.39
2023-11-12T23:15:35.157Z,71.55
2023-11-12T23:18:04.092Z,71.46
2023-11-12T23:20:31.927Z,71.47
2023-11-12T23:23:01.942Z,71.45
2023-11-12T23:25:30.740Z,71.47
2023-11-12T23:27:58.287Z,71.51
2023-11-12T23:30:25.745Z,71.27
2023-11-12T23:32:53.600Z,71.23
2023-11-12T23:35:21.888Z,71.30
2023-11-12T23:37:49.138Z,71.40
2023-11-12T23:40:16.911Z,71.37
2023-11-12T23:42:45.023Z,71.46
2023-11-12T23:45:12.579Z,71.48
2023-11-12T23:47:40.446Z,71.44
2023-11-12T23:50:08.470Z,71.68
2023-11-12T23:52:35.929Z,71.93
2023-11-12T23:55:05.919Z,72.00
2023-11-12T23:57:34.610Z,72.20
